sensor_id;sensor_type;location;lat;lon;timestamp;pressure;altitude;pressure_sealevel;temperature;humidity
47522;BME280;32291;52.010;4.446;2023-05-11T00:00:24;78347.47;;;-144.67;100.00
47522;BME280;32291;52.010;4.446;2023-05-11T00:01:26;78343.19;;;-144.67;100.00
47522;BME280;32291;52.010;4.446;2023-05-11T00:02:27;78349.63;;;-144.67;100.00
47522;BME280;32291;52.010;4.446;2023-05-11T00:03:29;78351.75;;;-144.67;100.00
47522;BME280;32291;52.010;4.446;2023-05-11T00:04:31;78345.34;;;-144.67;100.00
47522;BME280;32291;52.010;4.446;2023-05-11T00:05:33;78343.19;;;-144.67;100.00
47522;BME280;32291;52.010;4.446;2023-05-11T00:06:35;78345.34;;;-144.67;100.00
47522;BME280;32291;52.010;4.446;2023-05-11T00:07:37;78349.63;;;-144.67;100.00
47522;BME280;32291;52.010;4.446;2023-05-11T00:08:39;78343.19;;;-144.67;100.00
47522;BME280;32291;52.010;4.446;2023-05-11T00:09:41;78341.06;;;-144.67;100.00
47522;BME280;32291;52.010;4.446;2023-05-11T00:10:46;78334.63;;;-144.67;100.00
47522;BME280;32291;52.010;4.446;2023-05-11T00:11:50;78334.63;;;-144.67;100.00
47522;BME280;32291;52.010;4.446;2023-05-11T00:12:52;78334.63;;;-144.67;100.00
47522;BME280;32291;52.010;4.446;2023-05-11T00:13:54;78334.63;;;-144.67;100.00
47522;BME280;32291;52.010;4.446;2023-05-11T00:14:55;78334.63;;;-144.67;100.00
47522;BME280;32291;52.010;4.446;2023-05-11T00:15:57;78330.34;;;-144.67;100.00
47522;BME280;32291;52.010;4.446;2023-05-11T00:16:59;78334.63;;;-144.67;100.00
47522;BME280;32291;52.010;4.446;2023-05-11T00:18:01;78334.63;;;-144.67;100.00
47522;BME280;32291;52.010;4.446;2023-05-11T00:19:03;78341.06;;;-144.67;100.00
47522;BME280;32291;52.010;4.446;2023-05-11T00:20:05;78332.50;;;-144.67;100.00
47522;BME280;32291;52.010;4.446;2023-05-11T00:21:07;78334.63;;;-144.67;100.00
47522;BME280;32291;52.010;4.446;2023-05-11T00:22:08;78338.91;;;-144.67;100.00
47522;BME280;32291;52.010;4.446;2023-05-11T00:23:10;78334.63;;;-144.67;100.00
47522;BME280;32291;52.010;4.446;2023-05-11T00:24:12;78338.91;;;-144.67;100.00
47522;BME280;32291;52.010;4.446;2023-05-11T00:25:14;78334.63;;;-144.67;100.00
47522;BME280;32291;52.010;4.446;2023-05-11T00:26:15;78334.63;;;-144.67;100.00
47522;BME280;32291;52.010;4.446;2023-05-11T00:27:17;78334.63;;;-144.67;100.00
47522;BME280;32291;52.010;4.446;2023-05-11T00:28:19;78330.34;;;-144.67;100.00
47522;BME280;32291;52.010;4.446;2023-05-11T00:29:21;78328.22;;;-144.67;100.00
47522;BME280;32291;52.010;4.446;2023-05-11T00:30:22;78321.78;;;-144.67;100.00
47522;BME280;32291;52.010;4.446;2023-05-11T00:31:24;78321.78;;;-144.67;100.00
47522;BME280;32291;52.010;4.446;2023-05-11T00:32:26;78326.06;;;-144.67;100.00
47522;BME280;32291;52.010;4.446;2023-05-11T00:33:28;78326.06;;;-144.67;100.00
47522;BME280;32291;52.010;4.446;2023-05-11T00:34:30;78330.34;;;-144.67;100.00
47522;BME280;32291;52.010;4.446;2023-05-11T00:35:32;78321.78;;;-144.67;100.00
47522;BME280;32291;52.010;4.446;2023-05-11T00:36:34;78323.94;;;-144.67;100.00
47522;BME280;32291;52.010;4.446;2023-05-11T00:37:37;78321.78;;;-144.67;100.00
47522;BME280;32291;52.010;4.446;2023-05-11T00:38:39;78326.06;;;-144.67;100.00
47522;BME280;32291;52.010;4.446;2023-05-11T00:39:41;78323.94;;;-144.67;100.00
47522;BME280;32291;52.010;4.446;2023-05-11T00:40:43;78319.66;;;-144.67;100.00
47522;BME280;32291;52.010;4.446;2023-05-11T00:41:45;78313.22;;;-144.67;100.00
47522;BME280;32291;52.010;4.446;2023-05-11T00:42:46;78321.78;;;-144.67;100.00
47522;BME280;32291;52.010;4.446;2023-05-11T00:43:48;78321.78;;;-144.67;100.00
47522;BME280;32291;52.010;4.446;2023-05-11T00:44:50;78323.94;;;-144.67;100.00
47522;BME280;32291;52.010;4.446;2023-05-11T00:45:52;78321.78;;;-144.67;100.00
47522;BME280;32291;52.010;4.446;2023-05-11T00:46:54;78328.22;;;-144.67;100.00
47522;BME280;32291;52.010;4.446;2023-05-11T00:47:56;78328.22;;;-144.67;100.00
47522;BME280;32291;52.010;4.446;2023-05-11T00:48:58;78328.22;;;-144.67;100.00
47522;BME280;32291;52.010;4.446;2023-05-11T00:50:00;78334.63;;;-144.67;100.00
47522;BME280;32291;52.010;4.446;2023-05-11T00:51:03;78319.66;;;-144.67;100.00
47522;BME280;32291;52.010;4.446;2023-05-11T00:52:05;78308.94;;;-144.67;100.00
47522;BME280;32291;52.010;4.446;2023-05-11T00:53:07;78308.94;;;-144.67;100.00
47522;BME280;32291;52.010;4.446;2023-05-11T00:54:10;78321.78;;;-144.67;100.00
47522;BME280;32291;52.010;4.446;2023-05-11T00:55:19;78321.78;;;-144.67;100.00
47522;BME280;32291;52.010;4.446;2023-05-11T00:56:21;78317.50;;;-144.67;100.00
47522;BME280;32291;52.010;4.446;2023-05-11T00:57:23;78323.94;;;-144.67;100.00
47522;BME280;32291;52.010;4.446;2023-05-11T00:58:24;78308.94;;;-144.67;100.00
47522;BME280;32291;52.010;4.446;2023-05-11T00:59:26;78311.09;;;-144.67;100.00
47522;BME280;32291;52.010;4.446;2023-05-11T01:00:28;78317.50;;;-144.67;100.00
47522;BME280;32291;52.010;4.446;2023-05-11T01:01:30;78317.50;;;-144.67;100.00
47522;BME280;32291;52.010;4.446;2023-05-11T01:02:32;78323.94;;;-144.67;100.00
47522;BME280;32291;52.010;4.446;2023-05-11T01:03:34;78306.81;;;-144.67;100.00
47522;BME280;32291;52.010;4.446;2023-05-11T01:04:37;78291.81;;;-144.67;100.00
47522;BME280;32291;52.010;4.446;2023-05-11T01:06:09;78308.94;;;-144.67;100.00
47522;BME280;32291;52.010;4.446;2023-05-11T01:07:23;78317.50;;;-144.67;100.00
47522;BME280;32291;52.010;4.446;2023-05-11T01:08:42;78321.78;;;-144.67;100.00
47522;BME280;32291;52.010;4.446;2023-05-11T01:10:20;78321.78;;;-144.67;100.00
47522;BME280;32291;52.010;4.446;2023-05-11T01:11:44;78326.06;;;-144.67;100.00
47522;BME280;32291;52.010;4.446;2023-05-11T01:14:22;78304.66;;;-144.67;100.00
47522;BME280;32291;52.010;4.446;2023-05-11T01:15:52;78306.81;;;-144.67;100.00
47522;BME280;32291;52.010;4.446;2023-05-11T01:17:02;78304.66;;;-144.67;100.00
47522;BME280;32291;52.010;4.446;2023-05-11T01:19:31;78300.38;;;-144.67;100.00
47522;BME280;32291;52.010;4.446;2023-05-11T01:20:45;78308.94;;;-144.67;100.00
47522;BME280;32291;52.010;4.446;2023-05-11T01:21:49;78317.50;;;-144.67;100.00
47522;BME280;32291;52.010;4.446;2023-05-11T01:24:58;78334.63;;;-144.67;100.00
47522;BME280;32291;52.010;4.446;2023-05-11T01:26:34;78319.66;;;-144.67;100.00
47522;BME280;32291;52.010;4.446;2023-05-11T01:30:53;78328.22;;;-144.67;100.00
47522;BME280;32291;52.010;4.446;2023-05-11T01:31:57;78338.91;;;-144.67;100.00
47522;BME280;32291;52.010;4.446;2023-05-11T01:33:08;78345.34;;;-144.67;100.00
47522;BME280;32291;52.010;4.446;2023-05-11T01:34:17;78338.91;;;-144.67;100.00
47522;BME280;32291;52.010;4.446;2023-05-11T01:35:23;78345.34;;;-144.67;100.00
47522;BME280;32291;52.010;4.446;2023-05-11T01:36:36;78343.19;;;-144.67;100.00
47522;BME280;32291;52.010;4.446;2023-05-11T01:37:45;78341.06;;;-144.67;100.00
47522;BME280;32291;52.010;4.446;2023-05-11T01:38:50;78338.91;;;-144.67;100.00
47522;BME280;32291;52.010;4.446;2023-05-11T01:40:00;78356.03;;;-144.67;100.00
47522;BME280;32291;52.010;4.446;2023-05-11T01:41:12;78334.63;;;-144.67;100.00
47522;BME280;32291;52.010;4.446;2023-05-11T01:42:20;78336.78;;;-144.67;100.00
47522;BME280;32291;52.010;4.446;2023-05-11T01:43:26;78332.50;;;-144.67;100.00
47522;BME280;32291;52.010;4.446;2023-05-11T01:44:31;78334.63;;;-144.67;100.00
47522;BME280;32291;52.010;4.446;2023-05-11T01:45:39;78338.91;;;-144.67;100.00
47522;BME280;32291;52.010;4.446;2023-05-11T01:46:43;78338.91;;;-144.67;100.00
47522;BME280;32291;52.010;4.446;2023-05-11T01:47:48;78336.78;;;-144.67;100.00
47522;BME280;32291;52.010;4.446;2023-05-11T01:48:53;78334.63;;;-144.67;100.00
47522;BME280;32291;52.010;4.446;2023-05-11T01:49:57;78338.91;;;-144.67;100.00
47522;BME280;32291;52.010;4.446;2023-05-11T01:51:02;78336.78;;;-144.67;100.00
47522;BME280;32291;52.010;4.446;2023-05-11T01:52:07;78338.91;;;-144.67;100.00
47522;BME280;32291;52.010;4.446;2023-05-11T01:53:12;78336.78;;;-144.67;100.00
47522;BME280;32291;52.010;4.446;2023-05-11T01:54:18;78343.19;;;-144.67;100.00
47522;BME280;32291;52.010;4.446;2023-05-11T01:55:22;78341.06;;;-144.67;100.00
47522;BME280;32291;52.010;4.446;2023-05-11T01:56:26;78343.19;;;-144.67;100.00
47522;BME280;32291;52.010;4.446;2023-05-11T01:57:30;78334.63;;;-144.67;100.00
47522;BME280;32291;52.010;4.446;2023-05-11T01:58:35;78336.78;;;-144.67;100.00
47522;BME280;32291;52.010;4.446;2023-05-11T01:59:39;78336.78;;;-144.67;100.00
47522;BME280;32291;52.010;4.446;2023-05-11T02:00:44;78338.91;;;-144.67;100.00
47522;BME280;32291;52.010;4.446;2023-05-11T02:01:46;78347.47;;;-144.67;100.00
47522;BME280;32291;52.010;4.446;2023-05-11T02:02:49;78347.47;;;-144.67;100.00
47522;BME280;32291;52.010;4.446;2023-05-11T02:03:53;78351.75;;;-144.67;100.00
47522;BME280;32291;52.010;4.446;2023-05-11T02:04:58;78351.75;;;-144.67;100.00
47522;BME280;32291;52.010;4.446;2023-05-11T02:06:03;78353.91;;;-144.67;100.00
47522;BME280;32291;52.010;4.446;2023-05-11T02:07:09;78343.19;;;-144.67;100.00
47522;BME280;32291;52.010;4.446;2023-05-11T02:08:14;78351.75;;;-144.67;100.00
47522;BME280;32291;52.010;4.446;2023-05-11T02:09:18;78347.47;;;-144.67;100.00
47522;BME280;32291;52.010;4.446;2023-05-11T02:10:25;78356.03;;;-144.67;100.00
47522;BME280;32291;52.010;4.446;2023-05-11T02:11:29;78351.75;;;-144.67;100.00
47522;BME280;32291;52.010;4.446;2023-05-11T02:12:34;78351.75;;;-144.67;100.00
47522;BME280;32291;52.010;4.446;2023-05-11T02:13:40;78347.47;;;-144.67;100.00
47522;BME280;32291;52.010;4.446;2023-05-11T02:14:44;78356.03;;;-144.67;100.00
47522;BME280;32291;52.010;4.446;2023-05-11T02:15:50;78349.63;;;-144.67;100.00
47522;BME280;32291;52.010;4.446;2023-05-11T02:16:55;78356.03;;;-144.67;100.00
47522;BME280;32291;52.010;4.446;2023-05-11T02:17:58;78356.03;;;-144.67;100.00
47522;BME280;32291;52.010;4.446;2023-05-11T02:19:02;78351.75;;;-144.67;100.00
47522;BME280;32291;52.010;4.446;2023-05-11T02:20:06;78356.03;;;-144.67;100.00
47522;BME280;32291;52.010;4.446;2023-05-11T02:21:10;78356.03;;;-144.67;100.00
47522;BME280;32291;52.010;4.446;2023-05-11T02:22:13;78358.19;;;-144.67;100.00
47522;BME280;32291;52.010;4.446;2023-05-11T02:23:16;78362.47;;;-144.67;100.00
47522;BME280;32291;52.010;4.446;2023-05-11T02:24:22;78356.03;;;-144.67;100.00
47522;BME280;32291;52.010;4.446;2023-05-11T02:25:25;78360.31;;;-144.67;100.00
47522;BME280;32291;52.010;4.446;2023-05-11T02:26:30;78366.75;;;-144.67;100.00
47522;BME280;32291;52.010;4.446;2023-05-11T02:27:32;78366.75;;;-144.67;100.00
47522;BME280;32291;52.010;4.446;2023-05-11T02:28:36;78364.59;;;-144.67;100.00
47522;BME280;32291;52.010;4.446;2023-05-11T02:29:38;78366.75;;;-144.67;100.00
47522;BME280;32291;52.010;4.446;2023-05-11T02:30:47;78364.59;;;-144.67;100.00
47522;BME280;32291;52.010;4.446;2023-05-11T02:32:17;78360.31;;;-144.67;100.00
47522;BME280;32291;52.010;4.446;2023-05-11T02:33:33;78364.59;;;-144.67;100.00
47522;BME280;32291;52.010;4.446;2023-05-11T02:34:42;78368.88;;;-144.67;100.00
47522;BME280;32291;52.010;4.446;2023-05-11T02:35:46;78366.75;;;-144.67;100.00
47522;BME280;32291;52.010;4.446;2023-05-11T02:36:55;78360.31;;;-144.67;100.00
47522;BME280;32291;52.010;4.446;2023-05-11T02:38:01;78364.59;;;-144.67;100.00
47522;BME280;32291;52.010;4.446;2023-05-11T02:39:08;78362.47;;;-144.67;100.00
47522;BME280;32291;52.010;4.446;2023-05-11T02:40:17;78356.03;;;-144.67;100.00
47522;BME280;32291;52.010;4.446;2023-05-11T02:41:27;78360.31;;;-144.67;100.00
47522;BME280;32291;52.010;4.446;2023-05-11T02:42:37;78364.59;;;-144.67;100.00
47522;BME280;32291;52.010;4.446;2023-05-11T02:43:47;78351.75;;;-144.67;100.00
47522;BME280;32291;52.010;4.446;2023-05-11T02:44:58;78351.75;;;-144.67;100.00
47522;BME280;32291;52.010;4.446;2023-05-11T02:46:13;78362.47;;;-144.67;100.00
47522;BME280;32291;52.010;4.446;2023-05-11T02:47:18;78360.31;;;-144.67;100.00
47522;BME280;32291;52.010;4.446;2023-05-11T02:48:30;78360.31;;;-144.67;100.00
47522;BME280;32291;52.010;4.446;2023-05-11T02:49:36;78373.16;;;-144.67;100.00
47522;BME280;32291;52.010;4.446;2023-05-11T02:50:40;78373.16;;;-144.67;100.00
47522;BME280;32291;52.010;4.446;2023-05-11T02:51:46;78371.03;;;-144.67;100.00
47522;BME280;32291;52.010;4.446;2023-05-11T02:52:54;78368.88;;;-144.67;100.00
47522;BME280;32291;52.010;4.446;2023-05-11T02:53:58;78368.88;;;-144.67;100.00
47522;BME280;32291;52.010;4.446;2023-05-11T02:55:02;78368.88;;;-144.67;100.00
47522;BME280;32291;52.010;4.446;2023-05-11T02:56:07;78375.31;;;-144.67;100.00
47522;BME280;32291;52.010;4.446;2023-05-11T02:57:10;78373.16;;;-144.67;100.00
47522;BME280;32291;52.010;4.446;2023-05-11T02:58:13;78381.72;;;-144.67;100.00
47522;BME280;32291;52.010;4.446;2023-05-11T02:59:15;78366.75;;;-144.67;100.00
47522;BME280;32291;52.010;4.446;2023-05-11T03:00:17;78364.59;;;-144.67;100.00
47522;BME280;32291;52.010;4.446;2023-05-11T03:01:19;78373.16;;;-144.67;100.00
47522;BME280;32291;52.010;4.446;2023-05-11T03:02:21;78368.88;;;-144.67;100.00
47522;BME280;32291;52.010;4.446;2023-05-11T03:03:24;78358.19;;;-144.67;100.00
47522;BME280;32291;52.010;4.446;2023-05-11T03:04:26;78368.88;;;-144.67;100.00
47522;BME280;32291;52.010;4.446;2023-05-11T03:05:28;78364.59;;;-144.67;100.00
47522;BME280;32291;52.010;4.446;2023-05-11T03:06:31;78368.88;;;-144.67;100.00
47522;BME280;32291;52.010;4.446;2023-05-11T03:07:34;78375.31;;;-144.67;100.00
47522;BME280;32291;52.010;4.446;2023-05-11T03:08:35;78373.16;;;-144.67;100.00
47522;BME280;32291;52.010;4.446;2023-05-11T03:09:37;78373.16;;;-144.67;100.00
47522;BME280;32291;52.010;4.446;2023-05-11T03:10:40;78368.88;;;-144.67;100.00
47522;BME280;32291;52.010;4.446;2023-05-11T03:11:44;78373.16;;;-144.67;100.00
47522;BME280;32291;52.010;4.446;2023-05-11T03:12:46;78368.88;;;-144.67;100.00
47522;BME280;32291;52.010;4.446;2023-05-11T03:13:48;78362.47;;;-144.67;100.00
47522;BME280;32291;52.010;4.446;2023-05-11T03:14:51;78360.31;;;-144.67;100.00
47522;BME280;32291;52.010;4.446;2023-05-11T03:15:54;78356.03;;;-144.67;100.00
47522;BME280;32291;52.010;4.446;2023-05-11T03:16:57;78360.31;;;-144.67;100.00
47522;BME280;32291;52.010;4.446;2023-05-11T03:18:00;78360.31;;;-144.67;100.00
47522;BME280;32291;52.010;4.446;2023-05-11T03:19:05;78360.31;;;-144.67;100.00
47522;BME280;32291;52.010;4.446;2023-05-11T03:20:10;78373.16;;;-144.67;100.00
47522;BME280;32291;52.010;4.446;2023-05-11T03:21:15;78368.88;;;-144.67;100.00
47522;BME280;32291;52.010;4.446;2023-05-11T03:22:20;78356.03;;;-144.67;100.00
47522;BME280;32291;52.010;4.446;2023-05-11T03:23:22;78364.59;;;-144.67;100.00
47522;BME280;32291;52.010;4.446;2023-05-11T03:24:25;78375.31;;;-144.67;100.00
47522;BME280;32291;52.010;4.446;2023-05-11T03:25:28;78373.16;;;-144.67;100.00
47522;BME280;32291;52.010;4.446;2023-05-11T03:26:32;78368.88;;;-144.67;100.00
47522;BME280;32291;52.010;4.446;2023-05-11T03:27:36;78366.75;;;-144.67;100.00
47522;BME280;32291;52.010;4.446;2023-05-11T03:28:42;78364.59;;;-144.67;100.00
47522;BME280;32291;52.010;4.446;2023-05-11T03:29:47;78364.59;;;-144.67;100.00
47522;BME280;32291;52.010;4.446;2023-05-11T03:30:52;78362.47;;;-144.67;100.00
47522;BME280;32291;52.010;4.446;2023-05-11T03:31:54;78366.75;;;-144.67;100.00
47522;BME280;32291;52.010;4.446;2023-05-11T03:32:56;78364.59;;;-144.67;100.00
47522;BME280;32291;52.010;4.446;2023-05-11T03:33:58;78364.59;;;-144.67;100.00
47522;BME280;32291;52.010;4.446;2023-05-11T03:34:59;78364.59;;;-144.67;100.00
47522;BME280;32291;52.010;4.446;2023-05-11T03:36:03;78368.88;;;-144.67;100.00
47522;BME280;32291;52.010;4.446;2023-05-11T03:37:06;78364.59;;;-144.67;100.00
47522;BME280;32291;52.010;4.446;2023-05-11T03:38:11;78362.47;;;-144.67;100.00
47522;BME280;32291;52.010;4.446;2023-05-11T03:39:16;78364.59;;;-144.67;100.00
47522;BME280;32291;52.010;4.446;2023-05-11T03:40:20;78373.16;;;-144.67;100.00
47522;BME280;32291;52.010;4.446;2023-05-11T03:41:25;78356.03;;;-144.67;100.00
47522;BME280;32291;52.010;4.446;2023-05-11T03:42:30;78356.03;;;-144.67;100.00
47522;BME280;32291;52.010;4.446;2023-05-11T03:43:34;78356.03;;;-144.67;100.00
47522;BME280;32291;52.010;4.446;2023-05-11T03:44:40;78353.91;;;-144.67;100.00
47522;BME280;32291;52.010;4.446;2023-05-11T03:45:44;78351.75;;;-144.67;100.00
47522;BME280;32291;52.010;4.446;2023-05-11T03:46:48;78360.31;;;-144.67;100.00
47522;BME280;32291;52.010;4.446;2023-05-11T03:47:52;78356.03;;;-144.67;100.00
47522;BME280;32291;52.010;4.446;2023-05-11T03:48:56;78360.31;;;-144.67;100.00
47522;BME280;32291;52.010;4.446;2023-05-11T03:49:58;78373.16;;;-144.67;100.00
47522;BME280;32291;52.010;4.446;2023-05-11T03:51:04;78366.75;;;-144.67;100.00
47522;BME280;32291;52.010;4.446;2023-05-11T03:52:06;78371.03;;;-144.67;100.00
47522;BME280;32291;52.010;4.446;2023-05-11T03:53:09;78360.31;;;-144.67;100.00
47522;BME280;32291;52.010;4.446;2023-05-11T03:54:12;78364.59;;;-144.67;100.00
47522;BME280;32291;52.010;4.446;2023-05-11T03:55:14;78368.88;;;-144.67;100.00
47522;BME280;32291;52.010;4.446;2023-05-11T03:56:16;78362.47;;;-144.67;100.00
47522;BME280;32291;52.010;4.446;2023-05-11T03:57:18;78368.88;;;-144.67;100.00
47522;BME280;32291;52.010;4.446;2023-05-11T03:58:20;78371.03;;;-144.67;100.00
47522;BME280;32291;52.010;4.446;2023-05-11T03:59:23;78360.31;;;-144.67;100.00
47522;BME280;32291;52.010;4.446;2023-05-11T04:00:25;78351.75;;;-144.67;100.00
47522;BME280;32291;52.010;4.446;2023-05-11T04:01:29;78360.31;;;-144.67;100.00
47522;BME280;32291;52.010;4.446;2023-05-11T04:02:33;78358.19;;;-144.67;100.00
47522;BME280;32291;52.010;4.446;2023-05-11T04:03:50;78356.03;;;-144.67;100.00
47522;BME280;32291;52.010;4.446;2023-05-11T04:04:52;78351.75;;;-144.67;100.00
47522;BME280;32291;52.010;4.446;2023-05-11T04:05:54;78341.06;;;-144.67;100.00
47522;BME280;32291;52.010;4.446;2023-05-11T04:06:57;78347.47;;;-144.67;100.00
47522;BME280;32291;52.010;4.446;2023-05-11T04:07:59;78343.19;;;-144.67;100.00
47522;BME280;32291;52.010;4.446;2023-05-11T04:09:01;78356.03;;;-144.67;100.00
47522;BME280;32291;52.010;4.446;2023-05-11T04:10:05;78353.91;;;-144.67;100.00
47522;BME280;32291;52.010;4.446;2023-05-11T04:11:07;78356.03;;;-144.67;100.00
47522;BME280;32291;52.010;4.446;2023-05-11T04:12:09;78360.31;;;-144.67;100.00
47522;BME280;32291;52.010;4.446;2023-05-11T04:13:10;78362.47;;;-144.67;100.00
47522;BME280;32291;52.010;4.446;2023-05-11T04:14:12;78362.47;;;-144.67;100.00
47522;BME280;32291;52.010;4.446;2023-05-11T04:15:14;78356.03;;;-144.67;100.00
47522;BME280;32291;52.010;4.446;2023-05-11T04:16:16;78362.47;;;-144.67;100.00
47522;BME280;32291;52.010;4.446;2023-05-11T04:17:18;78360.31;;;-144.67;100.00
47522;BME280;32291;52.010;4.446;2023-05-11T04:18:20;78360.31;;;-144.67;100.00
47522;BME280;32291;52.010;4.446;2023-05-11T04:19:21;78373.16;;;-144.67;100.00
47522;BME280;32291;52.010;4.446;2023-05-11T04:20:23;78368.88;;;-144.67;100.00
47522;BME280;32291;52.010;4.446;2023-05-11T04:21:25;78368.88;;;-144.67;100.00
47522;BME280;32291;52.010;4.446;2023-05-11T04:22:27;78368.88;;;-144.67;100.00
47522;BME280;32291;52.010;4.446;2023-05-11T04:23:29;78368.88;;;-144.67;100.00
47522;BME280;32291;52.010;4.446;2023-05-11T04:24:31;78362.47;;;-144.67;100.00
47522;BME280;32291;52.010;4.446;2023-05-11T04:25:32;78364.59;;;-144.67;100.00
47522;BME280;32291;52.010;4.446;2023-05-11T04:26:34;78368.88;;;-144.67;100.00
47522;BME280;32291;52.010;4.446;2023-05-11T04:27:35;78358.19;;;-144.67;100.00
47522;BME280;32291;52.010;4.446;2023-05-11T04:28:37;78362.47;;;-144.67;100.00
47522;BME280;32291;52.010;4.446;2023-05-11T04:29:39;78353.91;;;-144.67;100.00
47522;BME280;32291;52.010;4.446;2023-05-11T04:30:41;78364.59;;;-144.67;100.00
47522;BME280;32291;52.010;4.446;2023-05-11T04:31:42;78373.16;;;-144.67;100.00
47522;BME280;32291;52.010;4.446;2023-05-11T04:32:45;78364.59;;;-144.67;100.00
47522;BME280;32291;52.010;4.446;2023-05-11T04:33:47;78368.88;;;-144.67;100.00
47522;BME280;32291;52.010;4.446;2023-05-11T04:34:49;78364.59;;;-144.67;100.00
47522;BME280;32291;52.010;4.446;2023-05-11T04:35:53;78366.75;;;-144.67;100.00
47522;BME280;32291;52.010;4.446;2023-05-11T04:36:55;78360.31;;;-144.67;100.00
47522;BME280;32291;52.010;4.446;2023-05-11T04:37:57;78360.31;;;-144.67;100.00
47522;BME280;32291;52.010;4.446;2023-05-11T04:38:59;78362.47;;;-144.67;100.00
47522;BME280;32291;52.010;4.446;2023-05-11T04:40:01;78360.31;;;-144.67;100.00
47522;BME280;32291;52.010;4.446;2023-05-11T04:41:06;78356.03;;;-144.67;100.00
47522;BME280;32291;52.010;4.446;2023-05-11T04:42:08;78347.47;;;-144.67;100.00
47522;BME280;32291;52.010;4.446;2023-05-11T04:43:10;78338.91;;;-144.67;100.00
47522;BME280;32291;52.010;4.446;2023-05-11T04:44:12;78336.78;;;-144.67;100.00
47522;BME280;32291;52.010;4.446;2023-05-11T04:45:15;78345.34;;;-144.67;100.00
47522;BME280;32291;52.010;4.446;2023-05-11T04:46:16;78338.91;;;-144.67;100.00
47522;BME280;32291;52.010;4.446;2023-05-11T04:47:18;78334.63;;;-144.67;100.00
47522;BME280;32291;52.010;4.446;2023-05-11T04:48:19;78332.50;;;-144.67;100.00
47522;BME280;32291;52.010;4.446;2023-05-11T04:49:21;78334.63;;;-144.67;100.00
47522;BME280;32291;52.010;4.446;2023-05-11T04:50:23;78334.63;;;-144.67;100.00
47522;BME280;32291;52.010;4.446;2023-05-11T04:51:25;78334.63;;;-144.67;100.00
47522;BME280;32291;52.010;4.446;2023-05-11T04:52:26;78326.06;;;-144.67;100.00
47522;BME280;32291;52.010;4.446;2023-05-11T04:53:28;78321.78;;;-144.67;100.00
47522;BME280;32291;52.010;4.446;2023-05-11T04:54:30;78326.06;;;-144.67;100.00
47522;BME280;32291;52.010;4.446;2023-05-11T04:55:32;78304.66;;;-144.67;100.00
47522;BME280;32291;52.010;4.446;2023-05-11T04:56:34;78298.22;;;-144.67;100.00
47522;BME280;32291;52.010;4.446;2023-05-11T04:57:40;78287.53;;;-144.67;100.00
47522;BME280;32291;52.010;4.446;2023-05-11T04:58:45;78289.66;;;-144.67;100.00
47522;BME280;32291;52.010;4.446;2023-05-11T04:59:47;78283.25;;;-144.67;100.00
47522;BME280;32291;52.010;4.446;2023-05-11T05:00:49;78274.69;;;-144.67;100.00
47522;BME280;32291;52.010;4.446;2023-05-11T05:01:51;78276.81;;;-144.67;100.00
47522;BME280;32291;52.010;4.446;2023-05-11T05:02:53;78274.69;;;-144.67;100.00
47522;BME280;32291;52.010;4.446;2023-05-11T05:03:54;78270.41;;;-144.67;100.00
47522;BME280;32291;52.010;4.446;2023-05-11T05:04:56;78268.25;;;-144.67;100.00
47522;BME280;32291;52.010;4.446;2023-05-11T05:05:58;78263.97;;;-144.67;100.00
47522;BME280;32291;52.010;4.446;2023-05-11T05:07:00;78261.84;;;-144.67;100.00
47522;BME280;32291;52.010;4.446;2023-05-11T05:08:01;78253.28;;;-144.67;100.00
47522;BME280;32291;52.010;4.446;2023-05-11T05:09:03;78251.13;;;-144.67;100.00
47522;BME280;32291;52.010;4.446;2023-05-11T05:10:05;78249.00;;;-144.67;100.00
47522;BME280;32291;52.010;4.446;2023-05-11T05:11:09;78253.28;;;-144.67;100.00
47522;BME280;32291;52.010;4.446;2023-05-11T05:12:11;78251.13;;;-144.67;100.00
47522;BME280;32291;52.010;4.446;2023-05-11T05:13:13;78246.84;;;-144.67;100.00
47522;BME280;32291;52.010;4.446;2023-05-11T05:14:17;78242.56;;;-144.67;100.00
47522;BME280;32291;52.010;4.446;2023-05-11T05:15:19;78240.44;;;-144.67;100.00
47522;BME280;32291;52.010;4.446;2023-05-11T05:16:21;78236.16;;;-144.67;100.00
47522;BME280;32291;52.010;4.446;2023-05-11T05:17:23;78234.00;;;-144.67;100.00
47522;BME280;32291;52.010;4.446;2023-05-11T05:18:25;78234.00;;;-144.67;100.00
47522;BME280;32291;52.010;4.446;2023-05-11T05:19:27;78234.00;;;-144.67;100.00
47522;BME280;32291;52.010;4.446;2023-05-11T05:20:29;78238.28;;;-144.67;100.00
47522;BME280;32291;52.010;4.446;2023-05-11T05:21:31;78229.72;;;-144.67;100.00
47522;BME280;32291;52.010;4.446;2023-05-11T05:22:33;78223.31;;;-144.67;100.00
47522;BME280;32291;52.010;4.446;2023-05-11T05:23:35;78221.16;;;-144.67;100.00
47522;BME280;32291;52.010;4.446;2023-05-11T05:24:37;78216.88;;;-144.67;100.00
47522;BME280;32291;52.010;4.446;2023-05-11T05:25:39;78216.88;;;-144.67;100.00
47522;BME280;32291;52.010;4.446;2023-05-11T05:26:41;78216.88;;;-144.67;100.00
47522;BME280;32291;52.010;4.446;2023-05-11T05:27:43;78227.59;;;-144.67;100.00
47522;BME280;32291;52.010;4.446;2023-05-11T05:28:45;78219.03;;;-144.67;100.00
47522;BME280;32291;52.010;4.446;2023-05-11T05:29:46;78219.03;;;-144.67;100.00
47522;BME280;32291;52.010;4.446;2023-05-11T05:30:48;78219.03;;;-144.67;100.00
47522;BME280;32291;52.010;4.446;2023-05-11T05:31:51;78219.03;;;-144.67;100.00
47522;BME280;32291;52.010;4.446;2023-05-11T05:32:53;78225.44;;;-144.67;100.00
47522;BME280;32291;52.010;4.446;2023-05-11T05:33:55;78219.03;;;-144.67;100.00
47522;BME280;32291;52.010;4.446;2023-05-11T05:34:57;78212.59;;;-144.67;100.00